createdAt,value
2023-05-05T00:00:46.982Z,1005.7
2023-05-05T00:02:03.270Z,1005.6
2023-05-05T00:03:19.546Z,1005.7
2023-05-05T00:04:35.850Z,1005.6
2023-05-05T00:05:52.151Z,1005.7
2023-05-05T00:07:08.439Z,1005.6
2023-05-05T00:08:24.745Z,1005.6
2023-05-05T00:09:41.025Z,1005.6
2023-05-05T00:10:57.305Z,1005.6
2023-05-05T00:12:13.611Z,1005.6
2023-05-05T00:13:28.922Z,1005.6
2023-05-05T00:14:45.217Z,1005.6
2023-05-05T00:16:01.514Z,1005.6
2023-05-05T00:17:17.000Z,1005.6
2023-05-05T00:18:34.094Z,1005.6
2023-05-05T00:19:50.377Z,1005.6
2023-05-05T00:21:06.000Z,1005.6
2023-05-05T00:22:22.972Z,1005.6
2023-05-05T00:23:39.280Z,1005.5
2023-05-05T00:24:55.000Z,1005.5
2023-05-05T00:26:11.847Z,1005.5
2023-05-05T00:27:28.144Z,1005.5
2023-05-05T00:28:44.448Z,1005.5
2023-05-05T00:29:59.755Z,1005.5
2023-05-05T00:31:16.058Z,1005.5
2023-05-05T00:32:32.000Z,1005.5
2023-05-05T00:33:48.632Z,1005.5
2023-05-05T00:35:04.920Z,1005.5
2023-05-05T00:36:21.232Z,1005.5
2023-05-05T00:37:37.537Z,1005.4
2023-05-05T00:38:53.812Z,1005.4
2023-05-05T00:40:10.110Z,1005.4
2023-05-05T00:41:26.402Z,1005.4
2023-05-05T00:42:42.696Z,1005.4
2023-05-05T00:43:58.997Z,1005.4
2023-05-05T00:45:15.270Z,1005.4
2023-05-05T00:46:30.597Z,1005.3
2023-05-05T00:47:46.890Z,1005.4
2023-05-05T00:49:03.170Z,1005.3
2023-05-05T00:50:19.465Z,1005.3
2023-05-05T00:51:35.763Z,1005.3
2023-05-05T00:52:52.076Z,1005.3
2023-05-05T00:54:08.000Z,1005.2
2023-05-05T00:55:24.661Z,1005.3
2023-05-05T00:56:40.944Z,1005.3
2023-05-05T00:57:57.229Z,1005.2
2023-05-05T00:59:13.550Z,1005.2
2023-05-05T01:00:29.000Z,1005.2
2023-05-05T01:01:46.121Z,1005.2
2023-05-05T01:03:01.440Z,1005.2
2023-05-05T01:04:17.718Z,1005.2
2023-05-05T01:05:34.017Z,1005.2
2023-05-05T01:06:50.327Z,1005.2
2023-05-05T01:08:06.601Z,1005.2
2023-05-05T01:09:22.917Z,1005.2
2023-05-05T01:10:39.198Z,1005.2
2023-05-05T01:11:55.491Z,1005.2
2023-05-05T01:13:11.792Z,1005.2
2023-05-05T01:14:28.083Z,1005.2
2023-05-05T01:15:44.376Z,1005.2
2023-05-05T01:17:00.677Z,1005.2
2023-05-05T01:18:16.971Z,1005.2
2023-05-05T01:19:32.267Z,1005.2
2023-05-05T01:20:48.569Z,1005.2
2023-05-05T01:22:04.880Z,1005.1
2023-05-05T01:23:21.000Z,1005.2
2023-05-05T01:24:37.441Z,1005.1
2023-05-05T01:25:53.743Z,1005.2
2023-05-05T01:27:10.000Z,1005.1
2023-05-05T01:28:26.337Z,1005.1
2023-05-05T01:29:42.621Z,1005.1
2023-05-05T01:30:58.925Z,1005.1
2023-05-05T01:32:15.230Z,1005.1
2023-05-05T01:33:31.000Z,1005.1
2023-05-05T01:34:47.822Z,1005.1
2023-05-05T01:36:03.116Z,1005.1
2023-05-05T01:37:19.406Z,1005.1
2023-05-05T01:38:35.703Z,1005.1
2023-05-05T01:39:51.996Z,1005
2023-05-05T01:41:08.287Z,1005.1
2023-05-05T01:42:23.605Z,1005.1
2023-05-05T01:43:39.891Z,1005.1
2023-05-05T01:44:56.184Z,1005.1
2023-05-05T01:46:12.497Z,1005.1
2023-05-05T01:47:28.782Z,1005.2
2023-05-05T01:48:45.089Z,1005.2
2023-05-05T01:50:01.361Z,1005.2
2023-05-05T01:51:17.000Z,1005.2
2023-05-05T01:52:33.954Z,1005.1
2023-05-05T01:53:50.256Z,1005.1
2023-05-05T01:55:06.538Z,1005.1
2023-05-05T01:56:22.854Z,1005.2
2023-05-05T01:57:39.130Z,1005.2
2023-05-05T01:58:54.437Z,1005.2
2023-05-05T02:00:10.750Z,1005.3
2023-05-05T02:01:27.000Z,1005.3
2023-05-05T02:02:43.320Z,1005.3
2023-05-05T02:03:59.622Z,1005.3
2023-05-05T02:05:15.927Z,1005.3
2023-05-05T02:06:32.222Z,1005.3
2023-05-05T02:07:48.518Z,1005.3
2023-05-05T02:09:04.805Z,1005.3
2023-05-05T02:10:21.088Z,1005.3
2023-05-05T02:11:37.393Z,1005.3
2023-05-05T02:12:53.687Z,1005.4
2023-05-05T02:14:09.978Z,1005.3
2023-05-05T02:15:25.279Z,1005.3
2023-05-05T02:16:41.581Z,1005.4
2023-05-05T02:17:57.872Z,1005.4
2023-05-05T02:19:14.164Z,1005.4
2023-05-05T02:20:30.463Z,1005.4
2023-05-05T02:21:46.759Z,1005.3
2023-05-05T02:23:03.041Z,1005.3
2023-05-05T02:24:19.342Z,1005.4
2023-05-05T02:25:35.646Z,1005.3
2023-05-05T02:26:51.935Z,1005.3
2023-05-05T02:28:08.229Z,1005.3
2023-05-05T02:29:24.515Z,1005.4
2023-05-05T02:30:40.822Z,1005.3
2023-05-05T02:31:56.123Z,1005.3
2023-05-05T02:33:12.423Z,1005.3
2023-05-05T02:34:28.715Z,1005.3
2023-05-05T02:35:45.015Z,1005.3
2023-05-05T02:37:01.295Z,1005.3
2023-05-05T02:38:17.593Z,1005.3
2023-05-05T02:39:33.890Z,1005.3
2023-05-05T02:40:50.181Z,1005.3
2023-05-05T02:42:06.481Z,1005.3
2023-05-05T02:43:22.770Z,1005.2
2023-05-05T02:44:39.074Z,1005.2
2023-05-05T02:45:55.351Z,1005.2
2023-05-05T02:47:11.645Z,1005.2
2023-05-05T02:48:26.983Z,1005.2
2023-05-05T02:49:43.255Z,1005.2
2023-05-05T02:50:59.562Z,1005.2
2023-05-05T02:52:15.844Z,1005.1
2023-05-05T02:53:32.143Z,1005.2
2023-05-05T02:54:48.425Z,1005.2
2023-05-05T02:56:04.000Z,1005.1
2023-05-05T02:57:21.032Z,1005.1
2023-05-05T02:58:37.000Z,1005.1
2023-05-05T02:59:53.623Z,1005.1
2023-05-05T03:01:09.911Z,1005.1
2023-05-05T03:02:26.204Z,1005.1
2023-05-05T03:03:42.509Z,1005.2
2023-05-05T03:04:57.812Z,1005.1
2023-05-05T03:06:14.104Z,1005.1
2023-05-05T03:07:30.000Z,1005.2
2023-05-05T03:08:46.634Z,1005.2
2023-05-05T03:10:02.889Z,1005.2
2023-05-05T03:11:19.130Z,1005.1
2023-05-05T03:12:35.356Z,1005.1
2023-05-05T03:13:51.659Z,1005.1
2023-05-05T03:15:07.961Z,1005.1
2023-05-05T03:16:24.201Z,1005
2023-05-05T03:17:40.453Z,1005
2023-05-05T03:18:56.679Z,1005
2023-05-05T03:20:12.932Z,1005
2023-05-05T03:21:28.193Z,1005
2023-05-05T03:22:44.440Z,1005
2023-05-05T03:24:00.664Z,1005
2023-05-05T03:25:16.903Z,1004.9
2023-05-05T03:26:33.151Z,1005
2023-05-05T03:27:49.384Z,1005
2023-05-05T03:29:05.000Z,1005
2023-05-05T03:30:21.858Z,1005
2023-05-05T03:31:38.112Z,1004.9
2023-05-05T03:32:54.347Z,1005
2023-05-05T03:34:10.000Z,1004.9
2023-05-05T03:35:26.844Z,1004.9
2023-05-05T03:36:43.069Z,1004.9
2023-05-05T03:37:58.337Z,1004.9
2023-05-05T03:39:14.574Z,1005
2023-05-05T03:40:30.000Z,1005
2023-05-05T03:41:47.059Z,1005.1
2023-05-05T03:43:03.288Z,1005.1
2023-05-05T03:44:19.521Z,1005.1
2023-05-05T03:45:35.770Z,1005.1
2023-05-05T03:46:52.002Z,1005.1
2023-05-05T03:48:08.249Z,1005.1
2023-05-05T03:49:24.488Z,1005.1
2023-05-05T03:50:40.727Z,1005.1
2023-05-05T03:51:56.982Z,1005.1
2023-05-05T03:53:13.208Z,1005.1
2023-05-05T03:54:28.461Z,1005.1
2023-05-05T03:55:44.706Z,1005.1
2023-05-05T03:57:00.000Z,1005.2
2023-05-05T03:58:17.196Z,1005.1
2023-05-05T03:59:33.427Z,1005.1
2023-05-05T04:00:49.658Z,1005.1
2023-05-05T04:02:05.901Z,1005.1
2023-05-05T04:03:22.149Z,1005.2
2023-05-05T04:04:38.401Z,1005.2
2023-05-05T04:05:54.627Z,1005.2
2023-05-05T04:07:10.859Z,1005.2
2023-05-05T04:08:27.100Z,1005.2
2023-05-05T04:09:43.348Z,1005.2
2023-05-05T04:10:58.607Z,1005.2
2023-05-05T04:12:14.859Z,1005.2
2023-05-05T04:13:31.083Z,1005.2
2023-05-05T04:14:47.323Z,1005.2
2023-05-05T04:16:03.574Z,1005.2
2023-05-05T04:17:19.806Z,1005.2
2023-05-05T04:18:36.043Z,1005.2
2023-05-05T04:19:52.279Z,1005.2
2023-05-05T04:21:08.519Z,1005.2
2023-05-05T04:22:24.768Z,1005.2
2023-05-05T04:23:41.005Z,1005.2
2023-05-05T04:24:57.257Z,1005.2
2023-05-05T04:26:13.488Z,1005.3
2023-05-05T04:27:28.737Z,1005.2
2023-05-05T04:28:44.986Z,1005.2
2023-05-05T04:30:01.000Z,1005.3
2023-05-05T04:31:17.473Z,1005.3
2023-05-05T04:32:33.000Z,1005.3
2023-05-05T04:33:49.950Z,1005.3
2023-05-05T04:35:06.199Z,1005.3
2023-05-05T04:36:22.434Z,1005.3
2023-05-05T04:37:38.669Z,1005.3
2023-05-05T04:38:54.904Z,1005.3
2023-05-05T04:40:11.159Z,1005.3
2023-05-05T04:41:27.388Z,1005.3
2023-05-05T04:42:43.636Z,1005.2
2023-05-05T04:43:58.877Z,1005.2
2023-05-05T04:45:15.137Z,1005.2
2023-05-05T04:46:31.359Z,1005.2
2023-05-05T04:47:47.604Z,1005.2
2023-05-05T04:49:03.847Z,1005.2
2023-05-05T04:50:20.088Z,1005.2
2023-05-05T04:51:36.324Z,1005.2
2023-05-05T04:52:52.559Z,1005.2
2023-05-05T04:54:08.797Z,1005.3
2023-05-05T04:55:25.039Z,1005.3
2023-05-05T04:56:41.000Z,1005.3
2023-05-05T04:57:57.538Z,1005.3
2023-05-05T04:59:13.774Z,1005.3
2023-05-05T05:00:29.018Z,1005.3
2023-05-05T05:01:45.260Z,1005.3
2023-05-05T05:03:01.513Z,1005.4
2023-05-05T05:04:17.749Z,1005.4
2023-05-05T05:05:33.991Z,1005.4
2023-05-05T05:06:50.237Z,1005.4
2023-05-05T05:08:06.464Z,1005.4
2023-05-05T05:09:22.709Z,1005.3
2023-05-05T05:10:38.951Z,1005.3
2023-05-05T05:11:55.180Z,1005.3
2023-05-05T05:13:11.423Z,1005.3
2023-05-05T05:14:27.000Z,1005.3
2023-05-05T05:15:43.910Z,1005.3
2023-05-05T05:16:59.162Z,1005.3
2023-05-05T05:18:15.403Z,1005.3
2023-05-05T05:19:31.650Z,1005.3
2023-05-05T05:20:47.883Z,1005.3
2023-05-05T05:22:04.126Z,1005.3
2023-05-05T05:23:20.368Z,1005.3
2023-05-05T05:24:36.603Z,1005.3
2023-05-05T05:25:52.849Z,1005.2
2023-05-05T05:27:09.084Z,1005.3
2023-05-05T05:28:25.338Z,1005.3
2023-05-05T05:29:41.575Z,1005.3
2023-05-05T05:30:57.804Z,1005.2
2023-05-05T05:32:14.043Z,1005.3
2023-05-05T05:33:29.302Z,1005.3
2023-05-05T05:34:45.555Z,1005.2
2023-05-05T05:36:01.000Z,1005.2
2023-05-05T05:37:18.024Z,1005.2
2023-05-05T05:38:34.273Z,1005.2
2023-05-05T05:39:50.495Z,1005.2
2023-05-05T05:41:06.751Z,1005.2
2023-05-05T05:42:22.999Z,1005.2
2023-05-05T05:43:39.224Z,1005.2
2023-05-05T05:44:55.468Z,1005.2
2023-05-05T05:46:11.703Z,1005.2
2023-05-05T05:47:27.940Z,1005.2
2023-05-05T05:48:44.178Z,1005.2
2023-05-05T05:49:59.442Z,1005.2
2023-05-05T05:51:15.687Z,1005.2
2023-05-05T05:52:31.915Z,1005.1
2023-05-05T05:53:48.000Z,1005.1
2023-05-05T05:55:04.391Z,1005.2
2023-05-05T05:56:20.647Z,1005.2
2023-05-05T05:57:35.898Z,1005.2
2023-05-05T05:58:52.140Z,1005.1
2023-05-05T06:00:08.381Z,1005.2
2023-05-05T06:01:24.625Z,1005.2
2023-05-05T06:02:40.855Z,1005.2
2023-05-05T06:03:57.100Z,1005.2
2023-05-05T06:05:13.336Z,1005.2
2023-05-05T06:06:29.577Z,1005.2
2023-05-05T06:07:45.815Z,1005.1
2023-05-05T06:09:02.000Z,1005.2
2023-05-05T06:10:18.313Z,1005.2
2023-05-05T06:11:34.000Z,1005.2
2023-05-05T06:12:50.786Z,1005.2
2023-05-05T06:14:06.025Z,1005.2
2023-05-05T06:15:22.273Z,1005.3
2023-05-05T06:16:38.511Z,1005.3
2023-05-05T06:17:54.763Z,1005.3
2023-05-05T06:19:10.989Z,1005.3
2023-05-05T06:20:27.233Z,1005.2
2023-05-05T06:21:43.473Z,1005.3
2023-05-05T06:22:59.716Z,1005.2
2023-05-05T06:24:15.954Z,1005.3
2023-05-05T06:25:32.186Z,1005.3
2023-05-05T06:26:48.444Z,1005.2
2023-05-05T06:28:04.671Z,1005.3
2023-05-05T06:29:20.910Z,1005.2
2023-05-05T06:30:36.161Z,1005.2
2023-05-05T06:31:52.402Z,1005.2
2023-05-05T06:33:08.634Z,1005.2
2023-05-05T06:34:24.873Z,1005.3
2023-05-05T06:35:41.123Z,1005.2
2023-05-05T06:36:57.361Z,1005.3
2023-05-05T06:38:13.605Z,1005.3
2023-05-05T06:39:29.833Z,1005.3
2023-05-05T06:40:46.073Z,1005.3
2023-05-05T06:42:02.315Z,1005.3
2023-05-05T06:43:18.000Z,1005.3
2023-05-05T06:44:34.796Z,1005.4
2023-05-05T06:45:51.046Z,1005.4
2023-05-05T06:47:06.283Z,1005.4
2023-05-05T06:48:22.538Z,1005.4
2023-05-05T06:49:38.762Z,1005.4
2023-05-05T06:50:55.005Z,1005.4
2023-05-05T06:52:11.252Z,1005.4
2023-05-05T06:53:27.480Z,1005.3
2023-05-05T06:54:43.000Z,1005.3
2023-05-05T06:55:59.958Z,1005.4
2023-05-05T06:57:16.193Z,1005.3
2023-05-05T06:58:32.432Z,1005.4
2023-05-05T06:59:48.678Z,1005.3
2023-05-05T07:01:04.928Z,1005.3
2023-05-05T07:02:21.169Z,1005.3
2023-05-05T07:03:36.416Z,1005.4
2023-05-05T07:04:52.000Z,1005.4
2023-05-05T07:06:08.884Z,1005.4
2023-05-05T07:07:25.129Z,1005.4
2023-05-05T07:08:41.367Z,1005.3
2023-05-05T07:09:57.602Z,1005.4
2023-05-05T07:11:13.846Z,1005.3
2023-05-05T07:12:30.087Z,1005.3
2023-05-05T07:13:46.320Z,1005.3
2023-05-05T07:15:02.557Z,1005.3
2023-05-05T07:16:18.804Z,1005.3
2023-05-05T07:17:35.039Z,1005.3
2023-05-05T07:18:51.288Z,1005.3
2023-05-05T07:20:06.530Z,1005.3
2023-05-05T07:21:22.777Z,1005.3
2023-05-05T07:22:39.012Z,1005.3
2023-05-05T07:23:55.255Z,1005.3
2023-05-05T07:25:11.489Z,1005.3
2023-05-05T07:26:27.735Z,1005.2
2023-05-05T07:27:43.959Z,1005.2
2023-05-05T07:29:00.195Z,1005.2
2023-05-05T07:30:16.430Z,1005.2
2023-05-05T07:31:32.658Z,1005.2
2023-05-05T07:32:48.919Z,1005.2
2023-05-05T07:34:05.156Z,1005.2
2023-05-05T07:35:21.394Z,1005.2
2023-05-05T07:36:36.651Z,1005.2
2023-05-05T07:37:52.874Z,1005.2
2023-05-05T07:39:09.134Z,1005.3
2023-05-05T07:40:25.346Z,1005.3
2023-05-05T07:41:41.603Z,1005.2
2023-05-05T07:42:57.845Z,1005.2
2023-05-05T07:44:14.086Z,1005.2
2023-05-05T07:45:30.335Z,1005.3
2023-05-05T07:46:46.540Z,1005.2
2023-05-05T07:48:02.801Z,1005.2
2023-05-05T07:49:19.050Z,1005.2
2023-05-05T07:50:35.277Z,1005.2
2023-05-05T07:51:51.517Z,1005.2
2023-05-05T07:53:06.778Z,1005.2
2023-05-05T07:54:22.994Z,1005.2
2023-05-05T07:55:39.256Z,1005.3
2023-05-05T07:56:55.484Z,1005.2
2023-05-05T07:58:11.737Z,1005.3
2023-05-05T07:59:27.968Z,1005.2
2023-05-05T08:00:44.213Z,1005.3
2023-05-05T08:02:00.440Z,1005.2
2023-05-05T08:03:16.681Z,1005.2
2023-05-05T08:04:32.897Z,1005.3
2023-05-05T08:05:49.137Z,1005.3
2023-05-05T08:07:05.383Z,1005.3
2023-05-05T08:08:21.620Z,1005.2
2023-05-05T08:09:36.872Z,1005.2
2023-05-05T08:10:53.131Z,1005.2
2023-05-05T08:12:09.344Z,1005.2
2023-05-05T08:13:25.582Z,1005.2
2023-05-05T08:14:41.824Z,1005.2
2023-05-05T08:15:58.061Z,1005.3
2023-05-05T08:17:14.000Z,1005.2
2023-05-05T08:18:30.559Z,1005.2
2023-05-05T08:19:46.784Z,1005.3
2023-05-05T08:21:03.023Z,1005.2
2023-05-05T08:22:19.279Z,1005.2
2023-05-05T08:23:35.510Z,1005.2
2023-05-05T08:24:51.733Z,1005.2
2023-05-05T08:26:07.001Z,1005.2
2023-05-05T08:27:23.246Z,1005.1
2023-05-05T08:28:39.490Z,1005.2
2023-05-05T08:29:55.701Z,1005.2
2023-05-05T08:31:11.970Z,1005.2
2023-05-05T08:32:28.216Z,1005.1
2023-05-05T08:33:44.451Z,1005.1
2023-05-05T08:35:00.693Z,1005.1
2023-05-05T08:36:16.897Z,1005.1
2023-05-05T08:37:33.161Z,1005.1
2023-05-05T08:38:49.392Z,1005.1
2023-05-05T08:40:05.613Z,1005.1
2023-05-05T08:41:21.854Z,1005.1
2023-05-05T08:42:37.140Z,1005.1
2023-05-05T08:43:53.366Z,1005.1
2023-05-05T08:45:09.615Z,1005.1
2023-05-05T08:46:25.842Z,1005.1
2023-05-05T08:47:42.063Z,1005.1
2023-05-05T08:48:58.305Z,1005.1
2023-05-05T08:50:14.569Z,1005.1
2023-05-05T08:51:30.805Z,1005.1
2023-05-05T08:52:47.037Z,1005.2
2023-05-05T08:54:03.294Z,1005.1
2023-05-05T08:55:19.498Z,1005.1
2023-05-05T08:56:35.000Z,1005.1
2023-05-05T08:57:51.977Z,1005.1
2023-05-05T08:59:07.250Z,1005.1
2023-05-05T09:00:23.489Z,1005.1
2023-05-05T09:01:39.728Z,1005.1
2023-05-05T09:02:55.985Z,1005
2023-05-05T09:04:12.000Z,1005
2023-05-05T09:05:28.446Z,1005
2023-05-05T09:06:44.666Z,1005
2023-05-05T09:08:00.902Z,1005
2023-05-05T09:09:17.164Z,1005
2023-05-05T09:10:33.407Z,1004.9
2023-05-05T09:11:49.619Z,1005
2023-05-05T09:13:05.886Z,1005
2023-05-05T09:14:22.108Z,1005
2023-05-05T09:15:37.382Z,1004.9
2023-05-05T09:16:53.603Z,1004.9
2023-05-05T09:18:09.831Z,1004.9
2023-05-05T09:19:26.105Z,1005
2023-05-05T09:20:42.319Z,1004.9
2023-05-05T09:21:58.555Z,1004.9
2023-05-05T09:23:14.810Z,1004.9
2023-05-05T09:24:31.066Z,1004.9
2023-05-05T09:25:47.267Z,1004.9
2023-05-05T09:27:03.000Z,1004.9
2023-05-05T09:28:19.754Z,1005
2023-05-05T09:29:36.014Z,1004.9
2023-05-05T09:30:52.257Z,1005
2023-05-05T09:32:07.485Z,1005
2023-05-05T09:33:23.748Z,1004.9
2023-05-05T09:34:39.000Z,1004.9
2023-05-05T09:35:56.205Z,1004.9
2023-05-05T09:37:12.467Z,1004.9
2023-05-05T09:38:28.000Z,1004.9
2023-05-05T09:39:44.921Z,1004.8
2023-05-05T09:41:01.169Z,1004.9
2023-05-05T09:42:17.439Z,1004.9
2023-05-05T09:43:33.667Z,1004.9
2023-05-05T09:44:49.912Z,1004.8
2023-05-05T09:46:06.154Z,1004.8
2023-05-05T09:47:22.397Z,1004.8
2023-05-05T09:48:38.633Z,1004.8
2023-05-05T09:49:53.876Z,1004.8
2023-05-05T09:51:10.134Z,1004.8
2023-05-05T09:52:26.375Z,1004.9
2023-05-05T09:53:42.592Z,1004.8
2023-05-05T09:54:58.851Z,1004.9
2023-05-05T09:56:15.073Z,1004.9
2023-05-05T09:57:31.310Z,1004.9
2023-05-05T09:58:47.553Z,1004.9
2023-05-05T10:00:03.793Z,1004.9
2023-05-05T10:01:20.037Z,1004.9
2023-05-05T10:02:36.292Z,1004.9
2023-05-05T10:03:52.514Z,1004.8
2023-05-05T10:05:08.759Z,1004.9
2023-05-05T10:06:24.036Z,1004.9
2023-05-05T10:07:40.248Z,1004.8
2023-05-05T10:08:56.517Z,1004.8
2023-05-05T10:10:12.750Z,1004.8
2023-05-05T10:11:29.000Z,1004.8
2023-05-05T10:12:44.228Z,1004.7
2023-05-05T10:14:00.494Z,1004.8
2023-05-05T10:15:16.725Z,1004.7
2023-05-05T10:16:32.951Z,1004.7
2023-05-05T10:17:49.187Z,1004.7
2023-05-05T10:19:05.426Z,1004.7
2023-05-05T10:20:21.668Z,1004.7
2023-05-05T10:21:37.935Z,1004.6
2023-05-05T10:22:54.181Z,1004.6
2023-05-05T10:24:10.430Z,1004.6
2023-05-05T10:25:26.664Z,1004.5
2023-05-05T10:26:42.893Z,1004.6
2023-05-05T10:27:59.000Z,1004.6
2023-05-05T10:29:14.366Z,1004.6
2023-05-05T10:30:30.604Z,1004.5
2023-05-05T10:31:46.879Z,1004.5
2023-05-05T10:33:03.082Z,1004.4
2023-05-05T10:34:19.332Z,1004.4
2023-05-05T10:35:35.592Z,1004.4
2023-05-05T10:36:51.802Z,1004.4
2023-05-05T10:38:08.056Z,1004.4
2023-05-05T10:39:24.279Z,1004.4
2023-05-05T10:40:40.529Z,1004.3
2023-05-05T10:41:56.757Z,1004.3
2023-05-05T10:43:12.998Z,1004.3
2023-05-05T10:44:29.000Z,1004.3
2023-05-05T10:45:44.518Z,1004.3
2023-05-05T10:47:00.761Z,1004.3
2023-05-05T10:48:16.975Z,1004.3
2023-05-05T10:49:33.222Z,1004.3
2023-05-05T10:50:49.000Z,1004.2
2023-05-05T10:52:05.000Z,1004.3
2023-05-05T10:53:21.947Z,1004.2
2023-05-05T10:54:38.184Z,1004.2
2023-05-05T10:55:54.419Z,1004.2
2023-05-05T10:57:10.673Z,1004.2
2023-05-05T10:58:26.892Z,1004.2
2023-05-05T10:59:43.127Z,1004.2
2023-05-05T11:00:59.365Z,1004.2
2023-05-05T11:02:14.620Z,1004.2
2023-05-05T11:03:30.883Z,1004.1
2023-05-05T11:04:47.094Z,1004.1
2023-05-05T11:06:03.373Z,1004.1
2023-05-05T11:07:19.585Z,1004.1
2023-05-05T11:08:35.821Z,1004.1
2023-05-05T11:09:52.086Z,1004.1
2023-05-05T11:11:08.324Z,1004.1
2023-05-05T11:12:24.535Z,1004.1
2023-05-05T11:13:40.772Z,1004
2023-05-05T11:14:57.000Z,1004.1
2023-05-05T11:16:13.272Z,1004.1
2023-05-05T11:17:29.496Z,1004
2023-05-05T11:18:44.743Z,1004
2023-05-05T11:20:01.000Z,1004
2023-05-05T11:21:17.225Z,1003.9
2023-05-05T11:22:33.452Z,1003.9
2023-05-05T11:23:49.000Z,1003.9
2023-05-05T11:25:05.935Z,1003.9
2023-05-05T11:26:22.000Z,1003.9
2023-05-05T11:27:38.437Z,1003.8
2023-05-05T11:28:54.648Z,1003.8
2023-05-05T11:30:10.919Z,1003.8
2023-05-05T11:31:27.135Z,1003.8
2023-05-05T11:32:43.405Z,1003.8
2023-05-05T11:33:59.600Z,1003.8
2023-05-05T11:35:14.869Z,1003.8
2023-05-05T11:36:31.104Z,1003.8
2023-05-05T11:37:47.333Z,1003.8
2023-05-05T11:39:03.569Z,1003.8
2023-05-05T11:40:19.808Z,1003.7
2023-05-05T11:41:36.057Z,1003.7
2023-05-05T11:42:52.299Z,1003.8
2023-05-05T11:44:08.535Z,1003.7
2023-05-05T11:45:24.771Z,1003.7
2023-05-05T11:46:41.017Z,1003.7
2023-05-05T11:47:57.268Z,1003.7
2023-05-05T11:49:13.510Z,1003.7
2023-05-05T11:50:29.716Z,1003.7
2023-05-05T11:51:45.001Z,1003.6
2023-05-05T11:53:01.244Z,1003.6
2023-05-05T11:54:17.474Z,1003.6
2023-05-05T11:55:33.695Z,1003.6
2023-05-05T11:56:49.924Z,1003.6
2023-05-05T11:58:06.174Z,1003.5
2023-05-05T11:59:22.410Z,1003.5
2023-05-05T12:00:38.640Z,1003.5
2023-05-05T12:01:54.911Z,1003.5
2023-05-05T12:03:11.127Z,1003.5
2023-05-05T12:04:27.386Z,1003.6
2023-05-05T12:05:43.598Z,1003.5
2023-05-05T12:06:59.836Z,1003.6
2023-05-05T12:08:15.087Z,1003.6
2023-05-05T12:09:31.332Z,1003.6
2023-05-05T12:10:47.602Z,1003.6
2023-05-05T12:12:03.801Z,1003.6
2023-05-05T12:13:20.075Z,1003.5
2023-05-05T12:14:36.289Z,1003.5
2023-05-05T12:15:52.521Z,1003.5
2023-05-05T12:17:08.767Z,1003.5
2023-05-05T12:18:24.995Z,1003.5
2023-05-05T12:19:41.264Z,1003.5
2023-05-05T12:20:57.509Z,1003.5
2023-05-05T12:22:13.713Z,1003.5
2023-05-05T12:23:29.986Z,1003.5
2023-05-05T12:24:45.223Z,1003.5
2023-05-05T12:26:01.474Z,1003.5
2023-05-05T12:27:17.724Z,1003.5
2023-05-05T12:28:33.958Z,1003.5
2023-05-05T12:29:50.194Z,1003.5
2023-05-05T12:31:06.429Z,1003.4
2023-05-05T12:32:22.676Z,1003.4
2023-05-05T12:33:38.875Z,1003.3
2023-05-05T12:34:55.000Z,1003.4
2023-05-05T12:36:11.354Z,1003.3
2023-05-05T12:37:27.620Z,1003.3
2023-05-05T12:38:43.859Z,1003.3
2023-05-05T12:40:00.096Z,1003.3
2023-05-05T12:41:15.327Z,1003.3
2023-05-05T12:42:31.598Z,1003.2
2023-05-05T12:43:47.806Z,1003.2
2023-05-05T12:45:04.067Z,1003.2
2023-05-05T12:46:20.281Z,1003.2
2023-05-05T12:47:36.000Z,1003.3
2023-05-05T12:48:52.794Z,1003.2
2023-05-05T12:50:09.000Z,1003.2
2023-05-05T12:51:25.235Z,1003.2
2023-05-05T12:52:41.510Z,1003.2
2023-05-05T12:53:57.727Z,1003.2
2023-05-05T12:55:13.988Z,1003.2
2023-05-05T12:56:30.224Z,1003.2
2023-05-05T12:57:45.443Z,1003.2
2023-05-05T12:59:01.685Z,1003.1
2023-05-05T13:00:17.933Z,1003.1
2023-05-05T13:01:34.169Z,1003
2023-05-05T13:02:50.444Z,1003.1
2023-05-05T13:04:06.682Z,1003
2023-05-05T13:05:22.000Z,1003.1
2023-05-05T13:06:39.160Z,1003.1
2023-05-05T13:07:55.388Z,1003
2023-05-05T13:09:11.606Z,1003
2023-05-05T13:10:27.847Z,1003
2023-05-05T13:11:44.074Z,1003
2023-05-05T13:13:00.321Z,1003
2023-05-05T13:14:15.619Z,1003
2023-05-05T13:15:31.817Z,1003
2023-05-05T13:16:48.047Z,1003
2023-05-05T13:18:04.285Z,1002.9
2023-05-05T13:19:20.556Z,1002.9
2023-05-05T13:20:36.766Z,1002.9
2023-05-05T13:21:53.008Z,1002.9
2023-05-05T13:23:09.283Z,1002.8
2023-05-05T13:24:25.491Z,1002.9
2023-05-05T13:25:41.735Z,1002.9
2023-05-05T13:26:58.007Z,1002.9
2023-05-05T13:28:14.242Z,1002.9
2023-05-05T13:29:30.469Z,1002.8
2023-05-05T13:30:45.735Z,1002.9
2023-05-05T13:32:01.964Z,1002.8
2023-05-05T13:33:18.175Z,1002.8
2023-05-05T13:34:34.000Z,1002.8
2023-05-05T13:35:50.660Z,1002.7
2023-05-05T13:37:06.924Z,1002.7
2023-05-05T13:38:23.124Z,1002.8
2023-05-05T13:39:39.364Z,1002.8
2023-05-05T13:40:55.620Z,1002.7
2023-05-05T13:42:11.842Z,1002.7
2023-05-05T13:43:28.099Z,1002.6
2023-05-05T13:44:44.329Z,1002.6
2023-05-05T13:46:00.559Z,1002.6
2023-05-05T13:47:15.825Z,1002.6
2023-05-05T13:48:32.064Z,1002.6
2023-05-05T13:49:48.297Z,1002.6
2023-05-05T13:51:04.000Z,1002.6
2023-05-05T13:52:20.779Z,1002.5
2023-05-05T13:53:37.055Z,1002.6
2023-05-05T13:54:53.262Z,1002.6
2023-05-05T13:56:09.532Z,1002.5
2023-05-05T13:57:25.736Z,1002.5
2023-05-05T13:58:41.967Z,1002.5
2023-05-05T13:59:58.250Z,1002.5
2023-05-05T14:01:14.482Z,1002.5
2023-05-05T14:02:30.689Z,1002.4
2023-05-05T14:03:45.956Z,1002.4
2023-05-05T14:05:02.184Z,1002.4
2023-05-05T14:06:18.427Z,1002.4
2023-05-05T14:07:34.655Z,1002.3
2023-05-05T14:08:50.949Z,1002.4
2023-05-05T14:10:07.140Z,1002.4
2023-05-05T14:11:23.378Z,1002.4
2023-05-05T14:12:39.612Z,1002.4
2023-05-05T14:13:55.851Z,1002.3
2023-05-05T14:15:12.093Z,1002.3
2023-05-05T14:16:28.340Z,1002.3
2023-05-05T14:17:44.000Z,1002.3
2023-05-05T14:19:00.825Z,1002.3
2023-05-05T14:20:17.179Z,1002.3
2023-05-05T14:21:33.408Z,1002.3
2023-05-05T14:22:49.650Z,1002.2
2023-05-05T14:24:05.887Z,1002.2
2023-05-05T14:25:22.179Z,1002.2
2023-05-05T14:26:38.374Z,1002.2
2023-05-05T14:27:53.664Z,1002.2
2023-05-05T14:29:09.000Z,1002.2
2023-05-05T14:30:26.147Z,1002.2
2023-05-05T14:31:42.341Z,1002.1
2023-05-05T14:32:58.612Z,1002.1
2023-05-05T14:34:14.857Z,1002.1
2023-05-05T14:35:31.094Z,1002
2023-05-05T14:36:47.334Z,1002.1
2023-05-05T14:38:03.584Z,1002.1
2023-05-05T14:39:19.784Z,1002.1
2023-05-05T14:40:36.058Z,1002.2
2023-05-05T14:41:52.257Z,1002.2
2023-05-05T14:43:08.524Z,1002.1
2023-05-05T14:44:23.000Z,1002.1
2023-05-05T14:45:40.000Z,1002.1
2023-05-05T14:46:56.269Z,1002.1
2023-05-05T14:48:12.461Z,1002.1
2023-05-05T14:49:28.693Z,1002.1
2023-05-05T14:50:44.933Z,1002.1
2023-05-05T14:52:01.170Z,1002.1
2023-05-05T14:53:17.410Z,1002
2023-05-05T14:54:33.701Z,1002
2023-05-05T14:55:49.000Z,1002
2023-05-05T14:57:06.136Z,1002
2023-05-05T14:58:22.366Z,1002
2023-05-05T14:59:38.606Z,1002
2023-05-05T15:00:53.903Z,1001.9
2023-05-05T15:02:10.101Z,1002
2023-05-05T15:03:26.339Z,1002
2023-05-05T15:04:42.583Z,1002
2023-05-05T15:05:58.860Z,1001.9
2023-05-05T15:07:15.063Z,1001.9
2023-05-05T15:08:31.297Z,1001.9
2023-05-05T15:09:47.526Z,1001.9
2023-05-05T15:11:03.771Z,1001.9
2023-05-05T15:12:20.006Z,1001.8
2023-05-05T15:13:36.282Z,1001.8
2023-05-05T15:14:52.478Z,1001.8
2023-05-05T15:16:08.732Z,1001.8
2023-05-05T15:17:24.017Z,1001.9
2023-05-05T15:18:40.255Z,1001.9
2023-05-05T15:19:56.449Z,1001.9
2023-05-05T15:21:12.726Z,1001.9
2023-05-05T15:22:28.939Z,1001.8
2023-05-05T15:23:45.168Z,1001.9
2023-05-05T15:25:01.445Z,1001.9
2023-05-05T15:26:17.683Z,1001.9
2023-05-05T15:27:33.881Z,1001.8
2023-05-05T15:28:50.165Z,1001.8
2023-05-05T15:30:06.360Z,1001.8
2023-05-05T15:31:22.613Z,1001.8
2023-05-05T15:32:38.846Z,1001.8
2023-05-05T15:33:54.092Z,1001.7
2023-05-05T15:35:10.376Z,1001.7
2023-05-05T15:36:26.614Z,1001.7
2023-05-05T15:37:42.800Z,1001.8
2023-05-05T15:38:59.045Z,1001.8
2023-05-05T15:40:15.290Z,1001.7
2023-05-05T15:41:31.559Z,1001.7
2023-05-05T15:42:47.755Z,1001.7
2023-05-05T15:44:04.050Z,1001.7
2023-05-05T15:45:20.281Z,1001.8
2023-05-05T15:46:36.471Z,1001.7
2023-05-05T15:47:52.749Z,1001.7
2023-05-05T15:49:08.948Z,1001.7
2023-05-05T15:50:24.211Z,1001.7
2023-05-05T15:51:40.483Z,1001.7
2023-05-05T15:52:56.677Z,1001.6
2023-05-05T15:54:12.961Z,1001.6